createdAt,value
2023-06-02T00:00:15.376Z,83.05
2023-06-02T00:01:15.131Z,82.57
2023-06-02T00:02:11.709Z,83.84
2023-06-02T00:03:09.844Z,85.12
2023-06-02T00:04:06.954Z,86.55
2023-06-02T00:05:06.473Z,86.65
2023-06-02T00:06:04.660Z,87.60
2023-06-02T00:07:04.558Z,87.06
2023-06-02T00:08:02.413Z,87.33
2023-06-02T00:08:59.367Z,85.63
2023-06-02T00:09:57.040Z,86.34
2023-06-02T00:10:54.007Z,85.18
2023-06-02T00:11:50.578Z,84.12
2023-06-02T00:12:47.076Z,84.20
2023-06-02T00:13:43.814Z,85.63
2023-06-02T00:14:43.427Z,86.51
2023-06-02T00:15:41.535Z,85.91
2023-06-02T00:16:45.594Z,86.12
2023-06-02T00:17:42.325Z,85.01
2023-06-02T00:18:39.079Z,86.07
2023-06-02T00:19:36.398Z,86.30
2023-06-02T00:20:33.108Z,85.78
2023-06-02T00:21:29.807Z,84.23
2023-06-02T00:22:30.617Z,83.57
2023-06-02T00:23:30.145Z,84.05
2023-06-02T00:24:26.839Z,84.04
2023-06-02T00:25:23.949Z,83.55
2023-06-02T00:26:20.425Z,82.26
2023-06-02T00:27:16.931Z,80.72
2023-06-02T00:28:13.450Z,80.78
2023-06-02T00:29:09.984Z,81.03
2023-06-02T00:30:06.858Z,80.88
2023-06-02T00:31:03.496Z,81.50
2023-06-02T00:32:00.231Z,82.97
2023-06-02T00:32:57.243Z,83.73
2023-06-02T00:33:53.839Z,84.90
2023-06-02T00:34:50.380Z,85.88
2023-06-02T00:35:46.973Z,86.26
2023-06-02T00:36:43.482Z,86.20
2023-06-02T00:37:40.037Z,85.81
2023-06-02T00:38:36.834Z,85.86
2023-06-02T00:39:33.467Z,85.35
2023-06-02T00:40:30.185Z,85.08
2023-06-02T00:41:27.192Z,85.68
2023-06-02T00:42:23.813Z,85.52
2023-06-02T00:43:20.398Z,85.54
2023-06-02T00:44:17.004Z,86.47
2023-06-02T00:45:13.556Z,88.03
2023-06-02T00:46:10.369Z,89.29
2023-06-02T00:47:07.225Z,89.19
2023-06-02T00:48:04.319Z,89.82
2023-06-02T00:49:00.875Z,89.71
2023-06-02T00:49:58.318Z,90.02
2023-06-02T00:50:55.374Z,89.43
2023-06-02T00:51:53.089Z,89.44
2023-06-02T00:52:52.219Z,90.05
2023-06-02T00:53:48.877Z,89.92
2023-06-02T00:54:45.458Z,90.33
2023-06-02T00:55:42.573Z,89.67
2023-06-02T00:56:40.551Z,90.37
2023-06-02T00:57:41.525Z,91.24
2023-06-02T00:58:39.322Z,91.39
2023-06-02T00:59:36.690Z,90.58
2023-06-02T01:00:39.401Z,89.99
2023-06-02T01:01:36.477Z,89.93
2023-06-02T01:02:33.924Z,90.82
2023-06-02T01:03:30.911Z,90.90
2023-06-02T01:04:27.750Z,91.01
2023-06-02T01:05:24.314Z,90.45
2023-06-02T01:06:25.834Z,91.06
2023-06-02T01:07:26.630Z,91.64
2023-06-02T01:08:25.028Z,91.72
2023-06-02T01:09:21.831Z,91.62
2023-06-02T01:10:19.868Z,90.62
2023-06-02T01:11:18.099Z,90.09
2023-06-02T01:12:14.738Z,89.65
2023-06-02T01:13:11.306Z,89.48
2023-06-02T01:14:09.389Z,89.33
2023-06-02T01:15:06.257Z,89.51
2023-06-02T01:16:03.362Z,90.44
2023-06-02T01:17:01.021Z,89.77
2023-06-02T01:17:58.685Z,89.53
2023-06-02T01:18:56.100Z,89.42
2023-06-02T01:19:54.761Z,89.29
2023-06-02T01:20:53.493Z,89.32
2023-06-02T01:21:59.123Z,89.76
2023-06-02T01:22:58.800Z,89.30
2023-06-02T01:23:58.371Z,89.89
2023-06-02T01:24:59.422Z,88.66
2023-06-02T01:25:56.285Z,89.52
2023-06-02T01:26:52.845Z,90.25
2023-06-02T01:27:49.631Z,90.30
2023-06-02T01:28:46.663Z,90.78
2023-06-02T01:29:43.909Z,90.32
2023-06-02T01:30:40.588Z,91.37
2023-06-02T01:31:48.172Z,92.20
2023-06-02T01:33:03.476Z,91.94
2023-06-02T01:34:05.154Z,92.82
2023-06-02T01:35:05.696Z,91.85
2023-06-02T01:36:02.781Z,89.66
2023-06-02T01:37:00.730Z,89.59
2023-06-02T01:37:59.809Z,89.43
2023-06-02T01:38:57.861Z,89.58
2023-06-02T01:39:55.367Z,90.22
2023-06-02T01:40:53.145Z,91.95
2023-06-02T01:41:50.651Z,91.26
2023-06-02T01:42:47.575Z,90.13
2023-06-02T01:43:44.805Z,89.02
2023-06-02T01:44:42.325Z,88.50
2023-06-02T01:45:39.428Z,87.96
2023-06-02T01:46:36.078Z,89.25
2023-06-02T01:47:32.611Z,89.00
2023-06-02T01:48:31.840Z,88.20
2023-06-02T01:49:28.375Z,87.78
2023-06-02T01:50:24.904Z,87.98
2023-06-02T01:51:21.444Z,88.24
2023-06-02T01:52:17.992Z,87.88
2023-06-02T01:53:14.600Z,87.48
2023-06-02T01:54:11.769Z,86.84
2023-06-02T01:55:09.051Z,87.13
2023-06-02T01:56:05.995Z,87.42
2023-06-02T01:57:03.832Z,87.80
2023-06-02T01:58:00.407Z,87.69
2023-06-02T01:58:56.949Z,87.94
2023-06-02T01:59:53.550Z,88.11
2023-06-02T02:00:50.161Z,88.13
2023-06-02T02:01:46.777Z,87.31
2023-06-02T02:02:43.382Z,87.04
2023-06-02T02:03:40.650Z,87.26
2023-06-02T02:04:37.280Z,88.49
2023-06-02T02:05:33.870Z,87.57
2023-06-02T02:06:33.518Z,88.23
2023-06-02T02:07:30.417Z,88.41
2023-06-02T02:08:26.905Z,87.03
2023-06-02T02:09:23.503Z,87.59
2023-06-02T02:10:20.020Z,88.29
2023-06-02T02:11:16.499Z,88.06
2023-06-02T02:12:13.083Z,85.97
2023-06-02T02:13:09.595Z,86.19
2023-06-02T02:14:06.187Z,86.35
2023-06-02T02:15:03.224Z,86.81
2023-06-02T02:15:59.949Z,87.66
2023-06-02T02:16:56.526Z,85.92
2023-06-02T02:17:54.219Z,85.56
2023-06-02T02:18:53.985Z,86.18
2023-06-02T02:19:51.928Z,88.71
2023-06-02T02:20:48.661Z,88.46
2023-06-02T02:21:45.280Z,87.49
2023-06-02T02:22:41.896Z,86.25
2023-06-02T02:23:38.429Z,85.80
2023-06-02T02:24:35.004Z,87.23
2023-06-02T02:25:31.488Z,88.36
2023-06-02T02:26:29.133Z,87.45
2023-06-02T02:27:25.642Z,85.66
2023-06-02T02:28:22.194Z,85.47
2023-06-02T02:29:18.718Z,86.68
2023-06-02T02:30:17.063Z,86.29
2023-06-02T02:31:14.156Z,84.79
2023-06-02T02:32:10.819Z,83.99
2023-06-02T02:33:07.401Z,84.44
2023-06-02T02:34:04.564Z,85.74
2023-06-02T02:35:01.289Z,86.48
2023-06-02T02:35:58.092Z,87.81
2023-06-02T02:36:56.524Z,86.16
2023-06-02T02:37:53.079Z,85.27
2023-06-02T02:38:49.573Z,85.38
2023-06-02T02:39:46.297Z,85.49
2023-06-02T02:40:42.785Z,85.87
2023-06-02T02:41:39.321Z,87.03
2023-06-02T02:42:35.830Z,85.76
2023-06-02T02:43:32.470Z,86.03
2023-06-02T02:44:28.981Z,86.79
2023-06-02T02:45:26.101Z,87.43
2023-06-02T02:46:22.857Z,87.47
2023-06-02T02:47:19.490Z,87.50
2023-06-02T02:48:16.062Z,85.14
2023-06-02T02:49:12.787Z,85.02
2023-06-02T02:50:09.619Z,84.82
2023-06-02T02:51:06.289Z,84.94
2023-06-02T02:52:03.419Z,84.75
2023-06-02T02:52:59.969Z,86.22
2023-06-02T02:53:56.509Z,87.09
2023-06-02T02:54:53.182Z,87.02
2023-06-02T02:55:50.989Z,87.97
2023-06-02T02:56:47.839Z,89.92
2023-06-02T02:57:44.628Z,90.86
2023-06-02T02:58:41.339Z,89.94
2023-06-02T02:59:37.885Z,90.29
2023-06-02T03:00:34.613Z,90.21
2023-06-02T03:01:31.346Z,89.81
2023-06-02T03:02:28.013Z,90.23
2023-06-02T03:03:24.577Z,90.38
2023-06-02T03:04:23.340Z,90.19
2023-06-02T03:05:19.941Z,89.73
2023-06-02T03:06:19.655Z,89.45
2023-06-02T03:07:16.330Z,89.17
2023-06-02T03:08:13.819Z,89.29
2023-06-02T03:09:10.518Z,89.63
2023-06-02T03:10:10.474Z,89.85
2023-06-02T03:11:07.084Z,89.16
2023-06-02T03:12:03.731Z,88.58
2023-06-02T03:13:00.239Z,88.43
2023-06-02T03:13:56.719Z,88.21
2023-06-02T03:14:53.346Z,87.62
2023-06-02T03:15:49.869Z,88.82
2023-06-02T03:16:46.653Z,90.74
2023-06-02T03:17:43.323Z,90.40
2023-06-02T03:18:39.946Z,90.51
2023-06-02T03:19:36.508Z,89.70
2023-06-02T03:20:33.269Z,89.87
2023-06-02T03:21:32.706Z,91.54
2023-06-02T03:22:30.139Z,92.14
2023-06-02T03:23:26.949Z,91.50
2023-06-02T03:24:23.701Z,91.48
2023-06-02T03:25:22.045Z,91.77
2023-06-02T03:26:18.643Z,91.89
2023-06-02T03:27:17.032Z,91.90
2023-06-02T03:28:13.995Z,92.88
2023-06-02T03:29:10.875Z,93.20
2023-06-02T03:30:07.807Z,93.08
2023-06-02T03:31:04.367Z,93.11
2023-06-02T03:32:01.484Z,92.72
2023-06-02T03:32:58.122Z,93.10
2023-06-02T03:33:54.657Z,93.48
2023-06-02T03:34:51.202Z,93.45
2023-06-02T03:35:47.714Z,93.85
2023-06-02T03:36:44.555Z,94.27
2023-06-02T03:37:41.222Z,94.10
2023-06-02T03:38:37.800Z,94.18
2023-06-02T03:39:34.317Z,95.11
2023-06-02T03:40:30.859Z,96.03
2023-06-02T03:41:30.610Z,96.43
2023-06-02T03:42:28.440Z,96.40
2023-06-02T03:43:24.971Z,95.74
2023-06-02T03:44:21.653Z,93.75
2023-06-02T03:45:18.326Z,91.88
2023-06-02T03:46:15.054Z,90.91
2023-06-02T03:47:11.683Z,92.60
2023-06-02T03:48:08.271Z,92.81
2023-06-02T03:49:04.938Z,94.51
2023-06-02T03:50:01.520Z,95.00
2023-06-02T03:50:58.908Z,93.79
2023-06-02T03:51:55.420Z,92.50
2023-06-02T03:52:51.951Z,92.46
2023-06-02T03:53:50.284Z,92.37
2023-06-02T03:54:46.955Z,91.95
2023-06-02T03:55:43.484Z,91.77
2023-06-02T03:56:40.119Z,91.44
2023-06-02T03:57:36.710Z,90.99
2023-06-02T03:58:33.378Z,91.31
2023-06-02T03:59:31.614Z,90.39
2023-06-02T04:00:28.324Z,91.12
2023-06-02T04:01:25.080Z,92.74
2023-06-02T04:02:21.862Z,93.63
2023-06-02T04:03:20.455Z,93.80
2023-06-02T04:04:18.214Z,93.77
2023-06-02T04:05:15.656Z,94.73
2023-06-02T04:06:12.660Z,93.65
2023-06-02T04:07:09.406Z,94.98
2023-06-02T04:08:06.037Z,94.35
2023-06-02T04:09:02.686Z,92.19
2023-06-02T04:09:59.195Z,92.41
2023-06-02T04:10:55.857Z,93.59
2023-06-02T04:11:52.394Z,94.28
2023-06-02T04:12:48.878Z,94.66
2023-06-02T04:13:45.432Z,93.97
2023-06-02T04:14:41.975Z,93.92
2023-06-02T04:15:38.733Z,93.77
2023-06-02T04:16:35.384Z,93.00
2023-06-02T04:17:32.028Z,92.47
2023-06-02T04:18:29.058Z,92.64
2023-06-02T04:19:27.886Z,92.32
2023-06-02T04:20:24.516Z,91.81
2023-06-02T04:21:21.006Z,91.16
2023-06-02T04:22:17.485Z,90.52
2023-06-02T04:23:13.971Z,91.03
2023-06-02T04:24:10.482Z,91.34
2023-06-02T04:25:07.255Z,91.74
2023-06-02T04:26:03.923Z,91.08
2023-06-02T04:27:00.864Z,90.17
2023-06-02T04:27:57.407Z,89.67
2023-06-02T04:28:53.906Z,89.22
2023-06-02T04:29:51.974Z,89.12
2023-06-02T04:30:49.862Z,89.20
2023-06-02T04:31:49.063Z,90.14
2023-06-02T04:32:45.892Z,90.05
2023-06-02T04:33:42.816Z,88.85
2023-06-02T04:34:39.287Z,88.20
2023-06-02T04:35:36.455Z,88.01
2023-06-02T04:36:33.014Z,86.32
2023-06-02T04:37:29.688Z,88.73
2023-06-02T04:38:28.841Z,87.28
2023-06-02T04:39:25.513Z,87.38
2023-06-02T04:40:22.439Z,85.47
2023-06-02T04:41:19.136Z,84.48
2023-06-02T04:42:15.716Z,84.16
2023-06-02T04:43:12.276Z,82.73
2023-06-02T04:44:10.412Z,82.46
2023-06-02T04:45:08.277Z,83.57
2023-06-02T04:46:07.801Z,83.52
2023-06-02T04:47:04.457Z,83.93
2023-06-02T04:48:02.200Z,83.43
2023-06-02T04:48:58.715Z,83.34
2023-06-02T04:49:55.644Z,82.83
2023-06-02T04:50:52.258Z,82.37
2023-06-02T04:51:48.741Z,83.20
2023-06-02T04:52:45.513Z,82.70
2023-06-02T04:53:42.065Z,80.57
2023-06-02T04:54:39.425Z,79.45
2023-06-02T04:55:36.209Z,78.59
2023-06-02T04:56:33.553Z,77.71
2023-06-02T04:57:30.193Z,77.84
2023-06-02T04:58:27.964Z,77.75
2023-06-02T04:59:24.933Z,78.68
2023-06-02T05:00:21.541Z,78.55
2023-06-02T05:01:19.874Z,78.10
2023-06-02T05:02:16.762Z,77.26
2023-06-02T05:03:13.312Z,76.38
2023-06-02T05:04:10.011Z,77.20
2023-06-02T05:05:07.342Z,77.66
2023-06-02T05:06:03.912Z,78.54
2023-06-02T05:07:00.407Z,79.65
2023-06-02T05:07:57.361Z,79.53
2023-06-02T05:08:56.253Z,80.28
2023-06-02T05:09:52.737Z,79.43
2023-06-02T05:10:49.297Z,78.50
2023-06-02T05:11:46.040Z,78.57
2023-06-02T05:12:42.875Z,79.67
2023-06-02T05:13:39.412Z,77.80
2023-06-02T05:14:37.591Z,77.40
2023-06-02T05:15:34.156Z,78.50
2023-06-02T05:16:32.014Z,79.85
2023-06-02T05:17:29.393Z,77.81
2023-06-02T05:18:26.220Z,78.72
2023-06-02T05:19:22.827Z,79.21
2023-06-02T05:20:19.380Z,80.41
2023-06-02T05:21:15.844Z,79.75
2023-06-02T05:22:12.312Z,79.37
2023-06-02T05:23:09.147Z,79.66
2023-06-02T05:24:06.026Z,78.83
2023-06-02T05:25:03.551Z,78.93
2023-06-02T05:26:00.114Z,79.38
2023-06-02T05:26:56.672Z,78.80
2023-06-02T05:27:53.255Z,77.38
2023-06-02T05:28:50.233Z,77.17
2023-06-02T05:29:46.766Z,77.88
2023-06-02T05:30:43.286Z,79.08
2023-06-02T05:31:39.903Z,79.34
2023-06-02T05:32:36.519Z,79.31
2023-06-02T05:33:33.038Z,79.35
2023-06-02T05:34:29.651Z,77.91
2023-06-02T05:35:26.212Z,77.20
2023-06-02T05:36:22.759Z,77.46
2023-06-02T05:37:19.902Z,77.20
2023-06-02T05:38:18.954Z,76.66
2023-06-02T05:39:15.824Z,77.16
2023-06-02T05:40:15.074Z,76.21
2023-06-02T05:41:12.371Z,76.45
2023-06-02T05:42:08.938Z,74.38
2023-06-02T05:43:05.626Z,75.37
2023-06-02T05:44:02.301Z,74.10
2023-06-02T05:44:58.819Z,74.78
2023-06-02T05:45:55.539Z,76.16
2023-06-02T05:46:52.166Z,75.32
2023-06-02T05:47:51.830Z,73.03
2023-06-02T05:48:48.379Z,72.20
2023-06-02T05:49:44.893Z,70.13
2023-06-02T05:50:42.216Z,70.39
2023-06-02T05:51:38.789Z,71.58
2023-06-02T05:52:35.337Z,71.20
2023-06-02T05:53:32.187Z,70.69
2023-06-02T05:54:28.708Z,70.27
2023-06-02T05:55:25.342Z,70.47
2023-06-02T05:56:22.684Z,73.81
2023-06-02T05:57:19.251Z,74.69
2023-06-02T05:58:15.824Z,73.71
2023-06-02T05:59:12.319Z,73.48
2023-06-02T06:00:09.244Z,73.17
2023-06-02T06:01:05.920Z,72.31
2023-06-02T06:02:02.436Z,73.03
2023-06-02T06:02:59.119Z,73.52
2023-06-02T06:03:55.873Z,72.04
2023-06-02T06:04:52.590Z,71.96
2023-06-02T06:05:49.225Z,73.30
2023-06-02T06:06:45.939Z,71.93
2023-06-02T06:07:42.455Z,71.53
2023-06-02T06:08:39.393Z,70.23
2023-06-02T06:09:36.125Z,70.66
2023-06-02T06:10:32.688Z,70.91
2023-06-02T06:11:29.606Z,68.47
2023-06-02T06:12:26.299Z,68.56
2023-06-02T06:13:22.921Z,68.08
2023-06-02T06:14:19.459Z,69.07
2023-06-02T06:15:17.200Z,68.68
2023-06-02T06:16:13.777Z,67.87
2023-06-02T06:17:10.374Z,68.82
2023-06-02T06:18:06.977Z,69.78
2023-06-02T06:19:04.157Z,70.95
2023-06-02T06:20:00.691Z,69.40
2023-06-02T06:20:57.254Z,66.92
2023-06-02T06:21:53.818Z,68.01
2023-06-02T06:22:50.638Z,68.04
2023-06-02T06:23:47.166Z,67.25
2023-06-02T06:24:43.637Z,65.87
2023-06-02T06:25:40.150Z,64.88
2023-06-02T06:26:36.733Z,65.48
2023-06-02T06:27:33.218Z,65.36
2023-06-02T06:28:29.757Z,65.91
2023-06-02T06:29:26.388Z,65.49
2023-06-02T06:30:23.294Z,65.29
2023-06-02T06:31:20.003Z,63.29
2023-06-02T06:32:17.239Z,64.59
2023-06-02T06:33:13.849Z,63.63
2023-06-02T06:34:11.368Z,63.03
2023-06-02T06:35:08.175Z,61.38
2023-06-02T06:36:05.022Z,62.46
2023-06-02T06:37:01.698Z,63.04
2023-06-02T06:37:58.280Z,61.05
2023-06-02T06:38:54.921Z,60.69
2023-06-02T06:39:51.490Z,61.41
2023-06-02T06:40:48.102Z,62.52
2023-06-02T06:41:44.602Z,62.98
2023-06-02T06:42:41.114Z,62.35
2023-06-02T06:43:37.794Z,62.28
2023-06-02T06:44:34.382Z,62.81
2023-06-02T06:45:31.144Z,62.08
2023-06-02T06:46:27.684Z,60.58
2023-06-02T06:47:24.217Z,62.02
2023-06-02T06:48:20.902Z,61.49
2023-06-02T06:49:17.549Z,60.48
2023-06-02T06:50:15.237Z,62.73
2023-06-02T06:51:11.756Z,60.79
2023-06-02T06:52:08.393Z,61.01
2023-06-02T06:53:05.037Z,59.94
2023-06-02T06:54:01.624Z,57.65
2023-06-02T06:54:58.155Z,58.92
2023-06-02T06:55:54.735Z,57.03
2023-06-02T06:56:51.422Z,57.53
2023-06-02T06:57:47.900Z,57.61
2023-06-02T06:58:44.974Z,58.97
2023-06-02T06:59:42.226Z,59.05
2023-06-02T07:00:39.259Z,59.88
2023-06-02T07:01:35.855Z,60.92
2023-06-02T07:02:32.867Z,61.86
2023-06-02T07:03:29.582Z,61.33
2023-06-02T07:04:28.929Z,61.21
2023-06-02T07:05:26.141Z,60.78
2023-06-02T07:06:22.684Z,63.10
2023-06-02T07:07:19.220Z,63.86
2023-06-02T07:08:15.827Z,64.84
2023-06-02T07:09:12.566Z,63.66
2023-06-02T07:10:09.230Z,63.25
2023-06-02T07:11:05.898Z,62.67
2023-06-02T07:12:02.465Z,63.90
2023-06-02T07:12:59.030Z,65.39
2023-06-02T07:14:07.415Z,65.22
2023-06-02T07:15:11.120Z,64.80
2023-06-02T07:16:07.740Z,63.76
2023-06-02T07:17:04.476Z,62.03
2023-06-02T07:18:01.168Z,63.05
2023-06-02T07:18:57.734Z,65.86
2023-06-02T07:19:54.219Z,64.92
2023-06-02T07:20:50.767Z,64.39
2023-06-02T07:21:47.549Z,63.46
2023-06-02T07:22:44.128Z,61.93
2023-06-02T07:23:40.786Z,62.95
2023-06-02T07:24:37.302Z,62.73
2023-06-02T07:25:34.035Z,60.04
2023-06-02T07:26:30.635Z,61.38
2023-06-02T07:27:28.331Z,62.25
2023-06-02T07:28:38.935Z,63.27
2023-06-02T07:29:36.630Z,63.09
2023-06-02T07:30:33.190Z,63.24
2023-06-02T07:31:29.982Z,60.78
2023-06-02T07:32:26.980Z,61.15
2023-06-02T07:33:23.791Z,62.40
2023-06-02T07:34:20.494Z,61.69
2023-06-02T07:35:17.350Z,60.98
2023-06-02T07:36:13.984Z,61.77
2023-06-02T07:37:10.534Z,63.46
2023-06-02T07:38:07.094Z,59.78
2023-06-02T07:39:04.100Z,61.07
2023-06-02T07:40:00.640Z,61.46
2023-06-02T07:40:57.257Z,61.71
2023-06-02T07:41:53.740Z,61.66
2023-06-02T07:42:50.404Z,61.82
2023-06-02T07:43:46.891Z,61.58
2023-06-02T07:44:43.529Z,61.46
2023-06-02T07:45:40.075Z,59.41
2023-06-02T07:46:36.760Z,61.32
2023-06-02T07:47:33.397Z,58.39
2023-06-02T07:48:29.999Z,59.32
2023-06-02T07:49:26.647Z,61.18
2023-06-02T07:50:23.479Z,59.49
2023-06-02T07:51:20.028Z,58.21
2023-06-02T07:52:17.399Z,57.91
2023-06-02T07:53:14.186Z,58.75
2023-06-02T07:54:10.884Z,59.35
2023-06-02T07:55:07.788Z,58.98
2023-06-02T07:56:04.582Z,58.91
2023-06-02T07:57:01.466Z,58.68
2023-06-02T07:57:58.014Z,58.26
2023-06-02T07:58:54.539Z,58.28
2023-06-02T07:59:52.466Z,58.25
2023-06-02T08:00:49.613Z,58.03
2023-06-02T08:01:47.040Z,59.58
2023-06-02T08:02:44.928Z,57.85
2023-06-02T08:03:41.961Z,56.61
2023-06-02T08:04:38.794Z,58.27
2023-06-02T08:05:35.645Z,57.53
2023-06-02T08:06:32.279Z,58.57
2023-06-02T08:07:28.813Z,58.18
2023-06-02T08:08:25.804Z,58.64
2023-06-02T08:09:23.558Z,58.88
2023-06-02T08:10:20.070Z,56.81
2023-06-02T08:11:16.748Z,56.62
2023-06-02T08:12:13.571Z,56.84
2023-06-02T08:13:12.397Z,57.90
2023-06-02T08:14:08.977Z,57.24
2023-06-02T08:15:05.986Z,58.28
2023-06-02T08:16:26.927Z,56.44
2023-06-02T08:17:19.007Z,54.14
2023-06-02T08:18:16.378Z,56.36
2023-06-02T08:19:14.290Z,57.69
2023-06-02T08:20:11.034Z,59.94
2023-06-02T08:21:07.737Z,55.34
2023-06-02T08:22:05.063Z,56.13
2023-06-02T08:23:01.693Z,57.41
2023-06-02T08:23:58.155Z,56.31
2023-06-02T08:24:55.025Z,54.73
2023-06-02T08:25:51.709Z,54.51
2023-06-02T08:26:49.704Z,55.93
2023-06-02T08:27:46.500Z,54.84
2023-06-02T08:28:43.057Z,53.88
2023-06-02T08:29:39.637Z,53.20
2023-06-02T08:30:36.453Z,53.44
2023-06-02T08:31:33.012Z,54.09
2023-06-02T08:32:29.565Z,52.23
2023-06-02T08:33:26.768Z,50.60
2023-06-02T08:34:25.273Z,50.04
2023-06-02T08:35:22.384Z,50.62
2023-06-02T08:36:21.047Z,52.54
2023-06-02T08:37:18.812Z,51.49
2023-06-02T08:38:18.446Z,51.03
2023-06-02T08:39:14.988Z,50.53
2023-06-02T08:40:13.062Z,45.60
2023-06-02T08:41:11.600Z,48.16
2023-06-02T08:42:10.054Z,49.81
2023-06-02T08:43:08.113Z,51.81
2023-06-02T08:44:04.746Z,52.10
2023-06-02T08:45:01.319Z,52.73
2023-06-02T08:46:01.535Z,50.28
2023-06-02T08:46:58.971Z,53.31
2023-06-02T08:47:56.068Z,52.16
2023-06-02T08:48:57.184Z,48.48
2023-06-02T08:49:54.046Z,46.60
2023-06-02T08:50:54.240Z,47.54
2023-06-02T08:51:53.305Z,47.12
2023-06-02T08:52:51.406Z,51.57
2023-06-02T08:53:48.206Z,52.19
2023-06-02T08:54:45.130Z,50.26
2023-06-02T08:55:42.584Z,50.21
2023-06-02T08:56:41.539Z,51.59
2023-06-02T08:57:38.493Z,50.26
2023-06-02T08:58:35.809Z,51.76
2023-06-02T08:59:33.268Z,53.26
2023-06-02T09:00:29.753Z,52.70
2023-06-02T09:01:26.712Z,51.57
2023-06-02T09:02:23.414Z,51.04
2023-06-02T09:03:39.811Z,50.40
2023-06-02T09:04:36.726Z,48.90
2023-06-02T09:05:33.825Z,49.49
2023-06-02T09:06:30.375Z,51.09
2023-06-02T09:07:26.931Z,53.01
2023-06-02T09:08:23.657Z,50.99
2023-06-02T09:09:20.157Z,47.28
2023-06-02T09:10:32.689Z,47.42
2023-06-02T09:11:30.292Z,49.40
2023-06-02T09:12:27.259Z,49.70
2023-06-02T09:13:31.510Z,50.19
2023-06-02T09:14:28.114Z,47.49
2023-06-02T09:15:25.077Z,48.97
2023-06-02T09:16:23.304Z,48.24
2023-06-02T09:17:30.125Z,49.90
2023-06-02T09:18:27.074Z,49.64
2023-06-02T09:19:23.600Z,49.92
2023-06-02T09:20:31.400Z,49.73
2023-06-02T09:21:29.556Z,47.72
2023-06-02T09:22:26.965Z,48.23
2023-06-02T09:23:23.451Z,46.15
2023-06-02T09:24:35.318Z,46.65
2023-06-02T09:25:31.905Z,45.16
2023-06-02T09:26:31.214Z,45.74
2023-06-02T09:27:29.159Z,45.63
2023-06-02T09:28:26.170Z,44.62
2023-06-02T09:29:22.735Z,47.06
2023-06-02T09:30:19.323Z,45.41
2023-06-02T09:31:15.968Z,47.11
2023-06-02T09:32:16.828Z,44.83
2023-06-02T09:33:13.485Z,46.14
2023-06-02T09:34:10.025Z,44.37
2023-06-02T09:35:07.170Z,45.49
2023-06-02T09:36:05.785Z,46.24
2023-06-02T09:37:10.676Z,43.90
2023-06-02T09:38:08.830Z,45.15
2023-06-02T09:39:06.463Z,44.55
2023-06-02T09:40:07.593Z,44.75
2023-06-02T09:41:15.673Z,45.89
2023-06-02T09:42:13.110Z,43.48
2023-06-02T09:43:11.501Z,42.78
2023-06-02T09:44:14.785Z,42.29
2023-06-02T09:45:12.470Z,43.94
2023-06-02T09:46:09.150Z,43.89
2023-06-02T09:47:22.501Z,44.73
2023-06-02T09:48:20.222Z,45.11
2023-06-02T09:49:17.161Z,44.28
2023-06-02T09:50:34.083Z,42.30
2023-06-02T09:51:31.035Z,45.54
2023-06-02T09:52:27.665Z,43.42
2023-06-02T09:53:24.314Z,43.33
2023-06-02T09:54:21.504Z,43.79
2023-06-02T09:55:19.078Z,45.66
2023-06-02T09:56:15.989Z,46.53
2023-06-02T09:57:13.199Z,43.73
2023-06-02T09:58:09.774Z,43.02
2023-06-02T09:59:06.936Z,43.14
2023-06-02T10:00:04.471Z,45.19
2023-06-02T10:01:00.973Z,43.14
2023-06-02T10:01:57.579Z,42.10
2023-06-02T10:02:54.346Z,43.80
2023-06-02T10:03:51.009Z,43.91
2023-06-02T10:04:47.623Z,42.16
2023-06-02T10:05:49.647Z,43.57
2023-06-02T10:06:49.173Z,41.76
2023-06-02T10:07:48.520Z,42.57
2023-06-02T10:08:50.858Z,44.23
2023-06-02T10:09:59.526Z,43.73
2023-06-02T10:11:11.174Z,42.92
2023-06-02T10:12:27.602Z,42.02
2023-06-02T10:13:30.014Z,42.11
2023-06-02T10:14:26.614Z,41.42
2023-06-02T10:15:42.013Z,41.67
2023-06-02T10:17:03.266Z,42.14
2023-06-02T10:18:06.530Z,43.54
2023-06-02T10:19:06.049Z,42.13
2023-06-02T10:20:05.714Z,41.84
2023-06-02T10:21:20.890Z,43.24
2023-06-02T10:22:17.685Z,43.57
2023-06-02T10:23:17.408Z,41.30
2023-06-02T10:24:16.941Z,43.10
2023-06-02T10:25:28.573Z,42.15
2023-06-02T10:26:31.004Z,42.66
2023-06-02T10:27:30.217Z,43.31
2023-06-02T10:28:30.924Z,43.03
2023-06-02T10:29:29.906Z,43.77
2023-06-02T10:30:26.563Z,45.06
2023-06-02T10:31:35.823Z,41.99
2023-06-02T10:32:43.823Z,39.89
2023-06-02T10:33:43.988Z,42.08
2023-06-02T10:34:41.465Z,40.92
2023-06-02T10:35:57.979Z,39.86
2023-06-02T10:36:58.171Z,41.45
2023-06-02T10:38:13.334Z,39.76
2023-06-02T10:39:32.150Z,40.34
2023-06-02T10:40:48.640Z,42.31
2023-06-02T10:42:03.964Z,41.58
2023-06-02T10:43:10.796Z,37.17
2023-06-02T10:44:27.435Z,41.24
2023-06-02T10:45:25.459Z,40.30
2023-06-02T10:46:22.606Z,40.06
2023-06-02T10:47:19.442Z,41.61
2023-06-02T10:48:34.720Z,41.22
2023-06-02T10:49:51.116Z,39.96
2023-06-02T10:50:55.197Z,39.43
2023-06-02T10:52:04.832Z,39.20
2023-06-02T10:53:01.573Z,39.62
2023-06-02T10:54:05.691Z,42.06
2023-06-02T10:55:08.325Z,41.38
2023-06-02T10:56:24.911Z,43.13
2023-06-02T10:57:54.172Z,38.36
2023-06-02T10:58:50.765Z,41.57
2023-06-02T10:59:47.350Z,39.56
2023-06-02T11:00:44.858Z,41.38
2023-06-02T11:01:52.264Z,38.59
2023-06-02T11:02:48.986Z,41.95
2023-06-02T11:03:45.729Z,40.71
2023-06-02T11:04:46.125Z,41.27
2023-06-02T11:05:43.276Z,40.87
2023-06-02T11:06:39.796Z,39.47
2023-06-02T11:07:36.421Z,40.87
2023-06-02T11:08:38.204Z,38.59
2023-06-02T11:09:40.993Z,41.05
2023-06-02T11:10:41.479Z,40.16
2023-06-02T11:11:51.740Z,43.76
2023-06-02T11:12:51.078Z,39.71
2023-06-02T11:13:58.226Z,39.43
2023-06-02T11:15:05.287Z,42.49
2023-06-02T11:16:02.149Z,39.62
2023-06-02T11:17:17.395Z,42.44
2023-06-02T11:18:22.808Z,38.40
2023-06-02T11:19:39.240Z,39.27
2023-06-02T11:20:36.202Z,42.22
2023-06-02T11:21:33.260Z,41.17
2023-06-02T11:22:29.839Z,39.25
2023-06-02T11:23:28.160Z,41.41
2023-06-02T11:24:26.821Z,38.97
2023-06-02T11:25:23.424Z,41.49
2023-06-02T11:26:22.206Z,37.48
2023-06-02T11:27:19.334Z,37.21
2023-06-02T11:28:22.601Z,39.88
2023-06-02T11:29:19.160Z,37.59
2023-06-02T11:30:19.786Z,37.16
2023-06-02T11:31:21.198Z,34.30
2023-06-02T11:32:17.789Z,37.12
2023-06-02T11:33:14.706Z,38.07
2023-06-02T11:34:16.036Z,40.01
2023-06-02T11:35:12.638Z,40.04
2023-06-02T11:36:10.293Z,40.34
2023-06-02T11:37:16.089Z,42.09
2023-06-02T11:38:12.636Z,40.90
2023-06-02T11:39:09.565Z,38.66
2023-06-02T11:40:07.129Z,37.12
2023-06-02T11:41:13.690Z,37.15
2023-06-02T11:42:10.343Z,35.50
2023-06-02T11:43:06.962Z,36.08
2023-06-02T11:44:04.564Z,37.52
2023-06-02T11:45:01.187Z,38.45
2023-06-02T11:46:10.781Z,38.54
2023-06-02T11:47:07.395Z,35.82
2023-06-02T11:48:14.499Z,34.81
2023-06-02T11:49:11.235Z,37.28
2023-06-02T11:50:08.077Z,36.36
2023-06-02T11:51:05.001Z,37.76
2023-06-02T11:52:02.459Z,38.35
2023-06-02T11:52:59.540Z,37.28
2023-06-02T11:54:04.191Z,36.58
2023-06-02T11:55:01.330Z,36.16
2023-06-02T11:55:58.083Z,37.34
2023-06-02T11:56:54.977Z,38.42
2023-06-02T11:57:51.488Z,34.77
2023-06-02T11:58:48.356Z,35.65
2023-06-02T11:59:45.090Z,36.09
2023-06-02T12:00:42.356Z,35.10
2023-06-02T12:01:38.879Z,35.35
2023-06-02T12:02:36.538Z,35.15
2023-06-02T12:03:33.836Z,33.71
2023-06-02T12:04:31.489Z,35.99
2023-06-02T12:05:30.609Z,35.59
2023-06-02T12:06:27.689Z,36.09
2023-06-02T12:07:30.581Z,35.84
2023-06-02T12:08:27.172Z,35.47
2023-06-02T12:09:26.175Z,36.58
2023-06-02T12:10:31.444Z,36.02
2023-06-02T12:11:28.836Z,36.49
2023-06-02T12:12:25.401Z,37.71
2023-06-02T12:13:25.028Z,39.29
2023-06-02T12:14:21.578Z,37.61
2023-06-02T12:15:18.561Z,36.43
2023-06-02T12:16:22.413Z,35.62
2023-06-02T12:17:19.144Z,37.12
2023-06-02T12:18:27.200Z,37.33
2023-06-02T12:19:23.749Z,38.97
2023-06-02T12:20:20.295Z,36.50
2023-06-02T12:21:29.501Z,35.85
2023-06-02T12:22:26.230Z,33.63
2023-06-02T12:23:22.729Z,34.87
2023-06-02T12:24:32.383Z,32.70
2023-06-02T12:25:29.722Z,35.03
2023-06-02T12:26:28.254Z,31.19
2023-06-02T12:27:25.946Z,34.52
2023-06-02T12:28:22.977Z,34.51
2023-06-02T12:29:20.144Z,33.65
2023-06-02T12:30:17.277Z,34.18